createdAt,value
2022-08-18T00:01:15.833Z,10.27
2022-08-18T00:03:55.599Z,11.63
2022-08-18T00:06:30.282Z,10.50
2022-08-18T00:09:01.771Z,10.45
2022-08-18T00:14:21.595Z,10.02
2022-08-18T00:16:52.654Z,10.50
2022-08-18T00:19:45.270Z,10.70
2022-08-18T00:22:15.302Z,11.32
2022-08-18T00:24:49.525Z,10.52
2022-08-18T00:27:21.747Z,11.73
2022-08-18T00:29:51.326Z,12.77
2022-08-18T00:32:26.616Z,12.77
2022-08-18T00:34:54.816Z,12.98
2022-08-18T00:37:24.427Z,12.05
2022-08-18T00:39:53.742Z,13.43
2022-08-18T00:42:27.308Z,12.88
2022-08-18T00:45:01.994Z,12.82
2022-08-18T00:47:42.825Z,14.18
2022-08-18T00:50:28.041Z,13.68
2022-08-18T00:53:27.768Z,13.20
2022-08-18T00:55:58.867Z,12.82
2022-08-18T00:58:42.952Z,13.60
2022-08-18T01:01:12.515Z,12.25
2022-08-18T01:03:43.968Z,12.60
2022-08-18T01:06:32.459Z,11.35
2022-08-18T01:09:00.343Z,11.35
2022-08-18T01:11:29.013Z,11.40
2022-08-18T01:13:58.457Z,12.85
2022-08-18T01:16:56.946Z,11.40
2022-08-18T01:19:45.777Z,11.43
2022-08-18T01:22:27.370Z,11.43
2022-08-18T01:25:16.505Z,12.82
2022-08-18T01:27:44.304Z,12.52
2022-08-18T01:30:15.209Z,11.52
2022-08-18T01:35:17.487Z,11.32
2022-08-18T01:37:45.260Z,11.52
2022-08-18T01:41:01.001Z,10.82
2022-08-18T01:43:04.449Z,9.83
2022-08-18T01:45:33.518Z,11.48
2022-08-18T01:48:01.547Z,11.15
2022-08-18T01:50:30.335Z,11.88
2022-08-18T01:52:57.941Z,11.05
2022-08-18T01:55:28.479Z,11.73
2022-08-18T01:57:56.594Z,10.30
2022-08-18T02:00:25.295Z,10.23
2022-08-18T02:03:01.609Z,11.35
2022-08-18T02:05:42.214Z,11.63
2022-08-18T02:08:12.588Z,10.82
2022-08-18T02:10:40.402Z,10.27
2022-08-18T02:13:09.089Z,10.07
2022-08-18T02:15:36.593Z,12.00
2022-08-18T02:18:04.451Z,9.82
2022-08-18T02:20:32.326Z,10.85
2022-08-18T02:23:01.936Z,10.88
2022-08-18T02:25:29.608Z,10.13
2022-08-18T02:27:58.137Z,10.18
2022-08-18T02:30:25.833Z,11.15
2022-08-18T02:32:53.425Z,10.18
2022-08-18T02:35:21.064Z,10.80
2022-08-18T02:37:49.021Z,10.10
2022-08-18T02:40:19.090Z,11.55
2022-08-18T02:42:48.012Z,9.70
2022-08-18T02:45:16.375Z,10.77
2022-08-18T02:47:45.127Z,10.90
2022-08-18T02:50:13.589Z,10.25
2022-08-18T02:52:41.620Z,10.93
2022-08-18T02:55:10.394Z,10.50
2022-08-18T02:57:43.630Z,10.10
2022-08-18T03:00:19.014Z,11.73
2022-08-18T03:02:53.727Z,10.38
2022-08-18T03:05:21.448Z,10.40
2022-08-18T03:07:50.665Z,10.88
2022-08-18T03:10:32.922Z,9.65
2022-08-18T03:13:03.264Z,11.63
2022-08-18T03:15:31.027Z,11.25
2022-08-18T03:17:59.517Z,10.23
2022-08-18T03:20:30.602Z,9.77
2022-08-18T03:23:05.662Z,10.15
2022-08-18T03:25:49.076Z,11.70
2022-08-18T03:28:17.526Z,12.07
2022-08-18T03:30:45.354Z,12.55
2022-08-18T03:33:13.085Z,10.07
2022-08-18T03:35:41.662Z,10.35
2022-08-18T03:38:09.504Z,11.32
2022-08-18T03:40:37.624Z,11.70
2022-08-18T03:43:49.583Z,11.15
2022-08-18T03:46:01.544Z,13.15
2022-08-18T03:48:29.585Z,11.63
2022-08-18T03:51:05.497Z,11.90
2022-08-18T03:53:34.908Z,11.88
2022-08-18T03:56:06.250Z,11.80
2022-08-18T03:58:34.045Z,11.02
2022-08-18T04:01:03.496Z,10.93
2022-08-18T04:03:31.210Z,12.80
2022-08-18T04:05:59.085Z,11.80
2022-08-18T04:08:26.851Z,11.77
2022-08-18T04:10:54.448Z,12.13
2022-08-18T04:13:22.501Z,11.32
2022-08-18T04:15:50.527Z,12.95
2022-08-18T04:18:18.113Z,12.48
2022-08-18T04:20:57.637Z,12.68
2022-08-18T04:23:27.583Z,12.15
2022-08-18T04:25:59.880Z,11.82
2022-08-18T04:28:28.762Z,13.20
2022-08-18T04:30:59.752Z,13.05
2022-08-18T04:33:27.967Z,11.85
2022-08-18T04:35:55.996Z,14.07
2022-08-18T04:38:24.347Z,12.23
2022-08-18T04:40:52.009Z,13.02
2022-08-18T04:43:19.564Z,13.15
2022-08-18T04:45:47.812Z,15.77
2022-08-18T04:48:16.356Z,14.68
2022-08-18T04:50:44.034Z,13.50
2022-08-18T04:53:30.659Z,15.05
2022-08-18T04:56:00.169Z,14.20
2022-08-18T04:58:27.987Z,15.35
2022-08-18T05:01:01.568Z,16.60
2022-08-18T05:03:29.325Z,14.57
2022-08-18T05:05:59.840Z,15.55
2022-08-18T05:08:27.476Z,14.43
2022-08-18T05:11:03.151Z,15.18
2022-08-18T05:13:31.473Z,15.48
2022-08-18T05:16:11.696Z,14.35
2022-08-18T05:18:44.858Z,14.88
2022-08-18T05:21:16.278Z,15.27
2022-08-18T05:23:45.693Z,15.52
2022-08-18T05:26:15.102Z,16.17
2022-08-18T05:28:44.342Z,15.25
2022-08-18T05:31:21.934Z,15.07
2022-08-18T05:33:50.275Z,19.42
2022-08-18T05:36:26.936Z,17.58
2022-08-18T05:39:25.471Z,17.05
2022-08-18T05:42:12.797Z,17.52
2022-08-18T05:44:46.092Z,19.90
2022-08-18T05:47:17.041Z,20.67
2022-08-18T05:49:49.153Z,17.38
2022-08-18T05:52:34.710Z,18.52
2022-08-18T05:55:29.049Z,18.45
2022-08-18T05:58:12.803Z,18.70
2022-08-18T06:00:45.386Z,18.77
2022-08-18T06:03:23.085Z,18.92
2022-08-18T06:06:01.254Z,18.77
2022-08-18T06:08:36.917Z,17.45
2022-08-18T06:11:04.706Z,16.85
2022-08-18T06:13:39.136Z,16.88
2022-08-18T06:16:39.374Z,19.55
2022-08-18T06:19:26.635Z,19.70
2022-08-18T06:22:17.618Z,17.80
2022-08-18T06:25:22.722Z,16.60
2022-08-18T06:28:05.676Z,17.70
2022-08-18T06:30:42.528Z,19.35
2022-08-18T06:33:10.048Z,17.30
2022-08-18T06:35:52.040Z,18.20
2022-08-18T06:38:45.600Z,17.67
2022-08-18T06:41:43.155Z,16.20
2022-08-18T06:44:21.459Z,17.42
2022-08-18T06:46:56.483Z,16.20
2022-08-18T06:49:33.310Z,17.63
2022-08-18T06:52:29.360Z,18.63
2022-08-18T06:55:00.036Z,18.58
2022-08-18T06:57:37.164Z,18.98
2022-08-18T07:00:09.511Z,17.70
2022-08-18T07:02:59.183Z,18.20
2022-08-18T07:05:26.839Z,18.10
2022-08-18T07:08:30.537Z,19.85
2022-08-18T07:11:30.592Z,18.58
2022-08-18T07:14:16.549Z,16.93
2022-08-18T07:16:58.317Z,18.00
2022-08-18T07:19:29.997Z,15.68
2022-08-18T07:22:18.837Z,15.85
2022-08-18T07:24:50.365Z,14.10
2022-08-18T07:27:39.231Z,16.67
2022-08-18T07:30:09.220Z,17.70
2022-08-18T07:32:41.484Z,15.95
2022-08-18T07:35:10.493Z,14.98
2022-08-18T07:37:52.311Z,14.50
2022-08-18T07:40:33.022Z,14.57
2022-08-18T07:43:13.656Z,14.90
2022-08-18T07:45:45.112Z,14.18
2022-08-18T07:48:37.766Z,15.48
2022-08-18T07:51:31.202Z,14.88
2022-08-18T07:54:50.864Z,13.73
2022-08-18T07:57:26.683Z,14.27
2022-08-18T08:00:20.722Z,14.07
2022-08-18T08:03:11.520Z,15.00
2022-08-18T08:06:00.834Z,14.98
2022-08-18T08:08:30.907Z,13.23
2022-08-18T08:11:11.454Z,11.55
2022-08-18T08:13:59.153Z,12.32
2022-08-18T08:16:42.773Z,11.90
2022-08-18T08:19:31.459Z,11.52
2022-08-18T08:22:37.786Z,9.48
2022-08-18T08:25:42.898Z,11.23
2022-08-18T08:28:15.018Z,11.25
2022-08-18T08:30:55.328Z,10.32
2022-08-18T08:33:33.782Z,9.38
2022-08-18T08:36:07.665Z,10.65
2022-08-18T08:38:42.241Z,10.05
2022-08-18T08:41:19.794Z,9.35
2022-08-18T08:44:01.547Z,10.20
2022-08-18T08:46:32.113Z,9.50
2022-08-18T08:49:32.142Z,8.85
2022-08-18T08:52:08.113Z,9.40
2022-08-18T08:54:50.894Z,9.82
2022-08-18T08:57:20.887Z,8.98
2022-08-18T08:59:51.663Z,9.05
2022-08-18T09:02:46.803Z,9.55
2022-08-18T09:05:23.867Z,8.77
2022-08-18T09:08:03.229Z,9.55
2022-08-18T09:10:57.266Z,8.82
2022-08-18T09:13:34.825Z,8.35
2022-08-18T09:16:27.750Z,10.07
2022-08-18T09:19:14.233Z,9.57
2022-08-18T09:21:45.995Z,10.35
2022-08-18T09:24:29.026Z,10.27
2022-08-18T09:27:02.783Z,10.23
2022-08-18T09:32:27.238Z,8.82
2022-08-18T09:34:56.737Z,9.77
2022-08-18T09:37:29.097Z,10.60
2022-08-18T09:40:59.310Z,10.15
2022-08-18T09:43:52.412Z,9.50
2022-08-18T09:46:43.699Z,8.75
2022-08-18T09:49:23.831Z,8.57
2022-08-18T09:52:00.504Z,9.57
2022-08-18T09:54:33.458Z,10.23
2022-08-18T09:57:05.230Z,9.63
2022-08-18T09:59:34.303Z,9.77
2022-08-18T10:02:33.781Z,9.30
2022-08-18T10:05:20.102Z,9.13
2022-08-18T10:08:07.377Z,9.48
2022-08-18T10:10:59.713Z,9.00
2022-08-18T10:13:49.535Z,8.82
2022-08-18T10:16:31.951Z,7.43
2022-08-18T10:19:40.624Z,7.60
2022-08-18T10:22:10.712Z,8.20
2022-08-18T10:24:55.069Z,7.68
2022-08-18T10:27:49.182Z,7.80
2022-08-18T10:30:36.288Z,7.65
2022-08-18T10:34:05.521Z,7.82
2022-08-18T10:36:51.527Z,7.75
2022-08-18T10:39:27.333Z,8.02
2022-08-18T10:42:03.140Z,8.48
2022-08-18T10:44:36.387Z,7.65
2022-08-18T10:47:04.403Z,8.82
2022-08-18T10:49:46.553Z,8.07
2022-08-18T10:52:51.308Z,8.43
2022-08-18T10:55:51.141Z,9.38
2022-08-18T10:58:45.764Z,8.88
2022-08-18T11:01:21.602Z,8.18
2022-08-18T11:04:33.000Z,7.45
2022-08-18T11:07:12.548Z,7.68
2022-08-18T11:09:50.769Z,7.70
2022-08-18T11:13:07.613Z,7.95
2022-08-18T11:15:52.795Z,8.48
2022-08-18T11:18:32.736Z,10.55
2022-08-18T11:21:42.011Z,8.70
2022-08-18T11:24:24.920Z,9.15
2022-08-18T11:27:04.433Z,8.32
2022-08-18T11:29:43.453Z,9.40
2022-08-18T11:32:34.661Z,8.63
2022-08-18T11:35:25.986Z,8.77
2022-08-18T11:38:12.434Z,8.80
2022-08-18T11:43:41.910Z,9.15
2022-08-18T11:46:38.647Z,9.27
2022-08-18T11:49:33.746Z,9.30
2022-08-18T11:52:19.696Z,10.88
2022-08-18T11:55:16.877Z,10.05
2022-08-18T12:00:54.587Z,12.52
2022-08-18T12:03:49.445Z,11.50
2022-08-18T12:06:27.106Z,11.35
2022-08-18T12:09:54.049Z,11.40
2022-08-18T12:12:28.476Z,13.35
2022-08-18T12:15:24.752Z,11.02
2022-08-18T12:17:53.943Z,10.60
2022-08-18T12:20:22.940Z,10.70
2022-08-18T12:22:51.232Z,9.45
2022-08-18T12:25:24.676Z,10.18
2022-08-18T12:27:54.330Z,11.15
2022-08-18T12:30:21.830Z,11.85
2022-08-18T12:32:56.316Z,12.93
2022-08-18T12:35:34.771Z,12.43
2022-08-18T12:38:04.864Z,12.13
2022-08-18T12:40:41.718Z,11.88
2022-08-18T12:43:09.754Z,10.60
2022-08-18T12:48:28.112Z,10.10
2022-08-18T12:53:59.130Z,10.82
2022-08-18T12:56:30.829Z,9.68
2022-08-18T12:59:04.294Z,10.80
2022-08-18T13:01:34.675Z,11.02
2022-08-18T13:07:00.458Z,10.27
2022-08-18T13:09:42.968Z,11.05
2022-08-18T13:14:47.984Z,8.27
2022-08-18T13:17:29.722Z,8.80
2022-08-18T13:20:09.504Z,8.63
2022-08-18T13:22:40.222Z,7.40
2022-08-18T13:25:12.497Z,8.05
2022-08-18T13:27:45.004Z,7.93
2022-08-18T13:30:24.769Z,8.63
2022-08-18T13:33:02.328Z,9.32
2022-08-18T13:35:38.332Z,8.82
2022-08-18T13:38:19.058Z,7.80
2022-08-18T13:40:51.082Z,10.88
2022-08-18T13:43:30.448Z,8.55
2022-08-18T13:45:58.388Z,8.50
2022-08-18T13:48:26.294Z,9.93
2022-08-18T13:50:56.020Z,9.32
2022-08-18T13:53:25.017Z,8.98
2022-08-18T13:55:59.742Z,10.05
2022-08-18T13:58:29.519Z,8.98
2022-08-18T14:01:39.737Z,8.18
2022-08-18T14:03:51.026Z,7.75
2022-08-18T14:06:24.130Z,7.95
2022-08-18T14:08:53.761Z,8.63
2022-08-18T14:11:32.964Z,8.63
2022-08-18T14:14:02.431Z,8.30
2022-08-18T14:16:31.349Z,8.90
2022-08-18T14:19:17.753Z,9.85
2022-08-18T14:22:11.407Z,9.02
2022-08-18T14:25:00.471Z,8.23
2022-08-18T14:27:34.917Z,8.20
2022-08-18T14:30:06.780Z,8.82
2022-08-18T14:32:36.063Z,9.35
2022-08-18T14:35:33.100Z,8.90
2022-08-18T14:37:53.979Z,8.35
2022-08-18T14:40:23.890Z,8.68
2022-08-18T14:42:54.396Z,8.80
2022-08-18T14:45:31.662Z,8.77
2022-08-18T14:48:06.651Z,8.48
2022-08-18T14:50:37.032Z,8.15
2022-08-18T14:53:06.264Z,8.93
2022-08-18T14:55:34.470Z,8.50
2022-08-18T14:58:07.044Z,8.85
2022-08-18T15:00:53.339Z,8.30
2022-08-18T15:03:30.772Z,8.40
2022-08-18T15:06:04.760Z,7.95
2022-08-18T15:08:35.784Z,9.25
2022-08-18T15:11:06.228Z,9.85
2022-08-18T15:13:43.579Z,8.93
2022-08-18T15:16:15.467Z,8.93
2022-08-18T15:18:46.899Z,9.27
2022-08-18T15:21:38.688Z,10.30
2022-08-18T15:24:26.743Z,9.32
2022-08-18T15:26:58.032Z,8.77
2022-08-18T15:29:33.626Z,8.80
2022-08-18T15:32:05.599Z,9.32
2022-08-18T15:34:46.795Z,8.65
2022-08-18T15:37:24.193Z,8.98
2022-08-18T15:40:02.807Z,8.93
2022-08-18T15:42:31.248Z,8.85
2022-08-18T15:45:11.655Z,7.93
2022-08-18T15:47:40.903Z,8.00
2022-08-18T15:50:21.685Z,7.50
2022-08-18T15:52:57.946Z,8.07
2022-08-18T15:55:28.656Z,8.40
2022-08-18T15:57:58.812Z,8.70
2022-08-18T16:00:29.765Z,8.65
2022-08-18T16:03:01.788Z,8.68
2022-08-18T16:05:33.278Z,8.15
2022-08-18T16:08:01.426Z,8.40
2022-08-18T16:10:32.378Z,8.10
2022-08-18T16:13:02.240Z,9.32
2022-08-18T16:15:32.290Z,7.95
2022-08-18T16:18:03.846Z,9.20
2022-08-18T16:20:31.458Z,8.70
2022-08-18T16:22:59.076Z,8.45
2022-08-18T16:25:26.868Z,8.35
2022-08-18T16:27:55.429Z,7.30
2022-08-18T16:30:25.469Z,7.68
2022-08-18T16:32:53.683Z,8.30
2022-08-18T16:35:22.405Z,7.40
2022-08-18T16:37:50.082Z,7.53
2022-08-18T16:40:19.599Z,7.20
2022-08-18T16:42:50.710Z,6.93
2022-08-18T16:45:22.862Z,6.70
2022-08-18T16:47:50.723Z,6.68
2022-08-18T16:50:18.611Z,6.53
2022-08-18T16:52:46.425Z,7.35
2022-08-18T16:55:13.965Z,6.35
2022-08-18T16:58:02.444Z,6.43
2022-08-18T17:00:55.069Z,6.20
2022-08-18T17:03:43.749Z,5.65
2022-08-18T17:06:14.299Z,5.60
2022-08-18T17:11:21.346Z,5.50
2022-08-18T17:13:51.160Z,5.03
2022-08-18T17:16:20.847Z,5.20
2022-08-18T17:18:49.049Z,5.55
2022-08-18T17:21:19.777Z,5.72
2022-08-18T17:23:48.026Z,5.35
2022-08-18T17:26:29.618Z,4.75
2022-08-18T17:29:10.263Z,5.20
2022-08-18T17:34:12.378Z,5.00
2022-08-18T17:36:55.940Z,5.55
2022-08-18T17:39:43.310Z,5.55
2022-08-18T17:42:26.181Z,5.20
2022-08-18T17:45:00.526Z,5.57
2022-08-18T17:47:55.072Z,5.30
2022-08-18T17:51:09.894Z,5.10
2022-08-18T17:53:37.626Z,6.00
2022-08-18T17:56:12.578Z,5.30
2022-08-18T17:58:49.303Z,5.45
2022-08-18T18:01:17.309Z,5.55
2022-08-18T18:03:45.024Z,5.93
2022-08-18T18:06:23.215Z,5.50
2022-08-18T18:09:02.124Z,6.00
2022-08-18T18:11:41.320Z,5.45
2022-08-18T18:14:25.321Z,6.30
2022-08-18T18:17:14.475Z,5.50
2022-08-18T18:19:44.684Z,4.88
2022-08-18T18:22:24.304Z,5.30
2022-08-18T18:25:04.556Z,5.72
2022-08-18T18:27:40.945Z,5.85
2022-08-18T18:30:32.814Z,5.70
2022-08-18T18:33:15.174Z,5.85
2022-08-18T18:35:54.913Z,6.00
2022-08-18T18:38:49.177Z,5.30
2022-08-18T18:41:29.592Z,6.40
2022-08-18T18:44:10.845Z,6.78
2022-08-18T18:46:45.809Z,6.40
2022-08-18T18:49:27.379Z,6.32
2022-08-18T18:52:30.289Z,5.72
2022-08-18T18:55:02.941Z,5.97
2022-08-18T18:57:54.232Z,6.95
2022-08-18T19:00:25.444Z,5.72
2022-08-18T19:02:56.017Z,6.78
2022-08-18T19:05:29.588Z,5.38
2022-08-18T19:08:28.506Z,6.07
2022-08-18T19:11:20.277Z,6.18
2022-08-18T19:13:56.130Z,4.97
2022-08-18T19:16:40.209Z,4.95
2022-08-18T19:19:36.997Z,4.93
2022-08-18T19:22:28.360Z,5.18
2022-08-18T19:25:35.149Z,4.80
2022-08-18T19:28:18.022Z,5.20
2022-08-18T19:30:49.465Z,4.70
2022-08-18T19:33:32.615Z,3.65
2022-08-18T19:36:31.009Z,4.18
2022-08-18T19:39:14.052Z,3.97
2022-08-18T19:42:06.451Z,4.55
2022-08-18T19:45:15.229Z,4.60
2022-08-18T19:48:16.374Z,4.20
2022-08-18T19:50:52.951Z,3.80
2022-08-18T19:53:32.165Z,4.25
2022-08-18T19:56:39.338Z,4.00
2022-08-18T19:59:19.536Z,3.70
2022-08-18T20:02:10.862Z,3.80
2022-08-18T20:04:58.292Z,3.90
2022-08-18T20:08:04.488Z,4.63
2022-08-18T20:10:42.233Z,3.75
2022-08-18T20:13:31.290Z,3.47
2022-08-18T20:16:11.002Z,4.32
2022-08-18T20:18:41.450Z,3.42
2022-08-18T20:21:14.725Z,3.40
2022-08-18T20:24:02.434Z,3.65
2022-08-18T20:26:39.209Z,3.42
2022-08-18T20:29:11.065Z,3.78
2022-08-18T20:32:04.899Z,3.60
2022-08-18T20:34:35.386Z,3.45
2022-08-18T20:37:10.457Z,3.47
2022-08-18T20:39:54.844Z,3.15
2022-08-18T20:42:22.674Z,3.83
2022-08-18T20:44:57.699Z,3.40
2022-08-18T20:47:31.205Z,3.40
2022-08-18T20:50:04.322Z,3.85
2022-08-18T20:52:43.181Z,3.45
2022-08-18T20:55:30.634Z,3.50
2022-08-18T20:58:08.097Z,3.83
2022-08-18T21:00:41.893Z,3.60
2022-08-18T21:03:13.694Z,3.53
2022-08-18T21:05:44.317Z,3.70
2022-08-18T21:08:16.277Z,3.22
2022-08-18T21:10:54.690Z,3.58
2022-08-18T21:13:41.091Z,4.07
2022-08-18T21:16:11.754Z,3.90
2022-08-18T21:18:48.920Z,4.00
2022-08-18T21:21:26.871Z,3.83
2022-08-18T21:23:58.704Z,3.80
2022-08-18T21:26:28.548Z,4.05
2022-08-18T21:29:02.407Z,3.83
2022-08-18T21:31:43.985Z,4.00
2022-08-18T21:34:41.732Z,3.58
2022-08-18T21:37:14.905Z,4.15
2022-08-18T21:39:58.235Z,3.63
2022-08-18T21:42:29.077Z,4.00
2022-08-18T21:45:01.060Z,4.25
2022-08-18T21:47:34.894Z,3.80
2022-08-18T21:50:17.022Z,4.63
2022-08-18T21:52:53.418Z,4.25
2022-08-18T21:55:30.295Z,4.38
2022-08-18T21:58:02.738Z,3.90
2022-08-18T22:00:34.277Z,4.38
2022-08-18T22:03:23.117Z,4.70
2022-08-18T22:05:59.364Z,4.30
2022-08-18T22:08:31.900Z,5.00
2022-08-18T22:11:59.411Z,4.13
2022-08-18T22:14:27.185Z,4.43
2022-08-18T22:17:28.757Z,4.20
2022-08-18T22:20:34.173Z,4.72
2022-08-18T22:23:27.298Z,4.82
2022-08-18T22:26:12.583Z,4.60
2022-08-18T22:28:51.547Z,4.43
2022-08-18T22:31:21.379Z,4.72
2022-08-18T22:33:50.835Z,4.13
2022-08-18T22:36:26.402Z,4.82
2022-08-18T22:38:54.831Z,4.47
2022-08-18T22:41:23.019Z,4.70
2022-08-18T22:43:55.025Z,4.68
2022-08-18T22:46:24.858Z,4.95
2022-08-18T22:48:53.431Z,4.63
2022-08-18T22:51:27.858Z,4.20
2022-08-18T22:53:59.461Z,4.10
2022-08-18T22:56:34.379Z,3.80
2022-08-18T22:59:14.119Z,3.97
2022-08-18T23:04:16.042Z,4.30
2022-08-18T23:06:52.137Z,3.75
2022-08-18T23:09:32.402Z,3.47
2022-08-18T23:12:04.730Z,4.07
2022-08-18T23:14:33.847Z,3.83
2022-08-18T23:17:02.512Z,3.50
2022-08-18T23:19:32.281Z,3.55
2022-08-18T23:22:01.589Z,3.38
2022-08-18T23:24:29.465Z,3.65
2022-08-18T23:26:57.489Z,3.42
2022-08-18T23:29:25.049Z,3.72
2022-08-18T23:31:53.367Z,3.35
2022-08-18T23:34:23.160Z,3.67
2022-08-18T23:36:57.968Z,3.15
2022-08-18T23:39:26.396Z,2.92
2022-08-18T23:41:54.163Z,3.17
2022-08-18T23:44:25.481Z,2.85
2022-08-18T23:46:58.116Z,3.80
2022-08-18T23:49:28.719Z,4.10
2022-08-18T23:51:58.280Z,3.42
2022-08-18T23:54:35.933Z,3.58
2022-08-18T23:57:03.571Z,3.53
2022-08-18T23:59:31.463Z,4.13
